CST,Max TemperatureF,Mean TemperatureF,Min TemperatureF,Max Dew PointF,MeanDew PointF,Min DewpointF,Max Humidity, Mean Humidity, Min Humidity, Max Sea Level PressureIn, Mean Sea Level PressureIn, Min Sea Level PressureIn, Max VisibilityMiles, Mean VisibilityMiles, Min VisibilityMiles, Max Wind SpeedMPH, Mean Wind SpeedMPH, Max Gust SpeedMPH,PrecipitationIn, CloudCover, Events, WindDirDegrees
2013-1-1,54,48,41,53,49,39,100,98,77,30.16,30.05,29.98,10,6,1,21,5,26,1.39,8,Rain,348
2013-1-2,41,38,34,39,33,28,93,84,75,30.27,30.22,30.13,10,10,8,12,9,,0.00,7,,333
2013-1-3,45,36,28,29,26,21,90,71,38,30.43,30.36,30.27,10,10,10,10,6,,0.00,1,,323
2013-1-4,50,38,25,30,26,23,90,69,37,30.50,30.44,30.40,10,10,10,9,2,,0.00,1,,327
2013-1-5,46,37,28,40,35,27,100,84,54,30.45,30.36,30.30,10,9,5,7,1,,0.15,7,Rain,176
2013-1-6,48,40,32,41,37,32,100,95,66,30.37,30.31,30.27,10,6,0,9,2,,0.00,5,Fog,315
2013-1-7,52,39,26,33,29,25,100,83,42,30.41,30.34,30.27,10,8,2,12,2,,0.00,0,,3
2013-1-8,59,44,29,50,41,28,95,76,51,30.32,30.24,30.20,10,10,9,12,3,,0.00,4,Rain,122
2013-1-9,59,55,51,60,56,50,100,99,88,30.35,30.29,30.25,10,7,0,9,3,,0.75,8,Fog-Rain,83
2013-1-10,68,64,59,68,64,59,100,97,83,30.29,30.15,30.00,10,7,1,21,10,26,0.43,7,Rain,155
2013-1-11,68,65,62,68,64,61,100,96,81,30.11,30.06,30.03,10,10,5,16,9,20,0.02,7,Rain,190
2013-1-12,76,72,68,68,66,62,100,87,67,30.06,30.00,29.88,10,10,7,18,11,26,0.01,6,Rain,185
2013-1-13,73,56,40,66,51,36,100,90,73,30.19,30.00,29.84,10,7,2,28,14,34,0.79,7,Rain-Thunderstorm,326
2013-1-14,41,37,33,36,33,30,93,89,81,30.29,30.22,30.17,10,8,2,18,12,24,1.31,8,Rain,7
2013-1-15,39,37,35,37,35,33,100,96,91,30.20,30.08,30.01,10,7,2,14,7,,1.19,8,Rain,342
2013-1-16,37,36,35,36,35,34,100,94,87,30.16,30.09,30.05,10,9,4,14,9,,0.36,8,Rain,330
2013-1-17,46,38,31,36,31,27,100,87,62,30.45,30.14,30.04,10,5,0,24,15,32,0.26,7,Fog-Rain-Snow,323
2013-1-18,53,40,28,36,31,26,96,78,41,30.60,30.49,30.42,10,10,9,10,4,,0.00,0,,7
2013-1-19,58,42,26,37,32,25,97,76,40,30.42,30.34,30.25,10,10,10,9,1,,0.00,0,,180
2013-1-20,61,44,28,42,37,28,100,72,42,30.27,30.20,30.16,10,7,2,6,1,,0.00,0,,311
2013-1-21,50,41,32,35,26,18,99,64,32,30.31,30.24,30.16,10,10,9,14,5,,0.00,0,,338
2013-1-22,45,34,24,30,21,18,84,58,34,30.45,30.37,30.31,10,10,10,8,2,,0.00,3,,2
2013-1-23,53,46,38,40,32,25,92,63,45,30.40,30.31,30.23,10,10,10,9,2,,0.00,6,,184
2013-1-24,55,50,44,43,33,24,88,57,32,30.38,30.28,30.22,10,10,10,12,5,17,0.00,7,,57
2013-1-25,66,54,41,57,46,26,100,82,43,30.25,30.16,30.09,10,9,4,18,8,22,0.07,8,Rain,310
2013-1-26,56,46,37,43,39,35,100,78,46,30.34,30.27,30.23,10,10,10,12,6,,0.00,7,,10
2013-1-27,64,56,48,50,42,36,82,65,50,30.33,30.27,30.23,10,10,10,10,4,,0.00,6,,135
2013-1-28,66,58,49,55,49,43,96,76,65,30.30,30.23,30.15,10,10,10,15,8,,0.00,4,,161
2013-1-29,76,65,54,64,61,54,100,87,60,30.15,29.98,29.71,10,9,3,20,10,30,0.00,6,Rain,177
2013-1-30,71,56,39,65,51,25,100,82,53,30.07,29.71,29.60,10,8,1,32,16,45,1.03,7,Rain-Thunderstorm,262
2013-1-31,54,42,30,30,26,24,86,57,31,30.26,30.18,30.09,10,10,10,15,8,,0.00,0,,246